Time;durP1;ratioP1;P1;durP2;ratioP2;P2;SDS_P1;SDS_P2;PMS_P1;PMS_P2;Temp;Humidity;BMP_temperature;BMP_pressure;BME280_temperature;BME280_humidity;BME280_pressure;Samples;Min_cycle;Max_cycle;Signal;HPM_P1;HPM_P2
2023/08/29 00:00:09;;;;;;;1.38;1.27;;;;;;;12.50;97.92;101350.66;6279681;22;20395;-74
2023/08/29 00:02:41;;;;;;;3.67;1.20;;;;;;;12.45;97.95;101337.88;6253843;22;20048;-74
2023/08/29 00:05:09;;;;;;;4.18;1.27;;;;;;;12.44;97.59;101333.72;6280080;22;20016;-76
2023/08/29 00:07:36;;;;;;;1.60;1.05;;;;;;;12.43;97.47;101345.59;6280401;22;20062;-76
2023/08/29 00:10:04;;;;;;;4.72;1.38;;;;;;;12.39;97.73;101345.00;6280755;22;20016;-76
2023/08/29 00:12:34;;;;;;;2.25;1.02;;;;;;;12.35;98.10;101345.13;6252781;22;20016;-76
2023/08/29 00:15:03;;;;;;;1.35;1.23;;;;;;;12.33;98.29;101342.88;6279846;22;20016;-76
2023/08/29 00:17:30;;;;;;;1.23;1.23;;;;;;;12.31;98.21;101339.16;6280050;22;20008;-76
2023/08/29 00:19:57;;;;;;;1.45;1.35;;;;;;;12.27;98.61;101331.28;6280537;22;20079;-76
2023/08/29 00:22:23;;;;;;;1.10;1.10;;;;;;;12.24;98.77;101328.72;6279731;22;20019;-76
2023/08/29 00:24:52;;;;;;;1.98;1.30;;;;;;;12.23;98.63;101327.25;6280546;22;20019;-76
2023/08/29 00:27:19;;;;;;;1.20;1.20;;;;;;;12.21;99.14;101330.34;6279853;22;20012;-76
2023/08/29 00:29:46;;;;;;;1.67;1.38;;;;;;;12.15;98.97;101326.75;6279817;22;20095;-76
2023/08/29 00:32:13;;;;;;;1.48;1.38;;;;;;;12.13;98.71;101336.38;6280308;22;20017;-76
2023/08/29 00:34:41;;;;;;;1.42;1.33;;;;;;;12.11;98.70;101333.38;6280035;22;20017;-76
2023/08/29 00:37:08;;;;;;;1.50;1.40;;;;;;;12.10;97.97;101329.22;6280056;22;20039;-76
2023/08/29 00:39:34;;;;;;;1.50;1.40;;;;;;;12.09;98.56;101336.50;6252683;22;20056;-76
2023/08/29 00:42:01;;;;;;;1.65;1.60;;;;;;;12.05;99.15;101327.13;6280478;22;20016;-76
2023/08/29 00:44:28;;;;;;;2.10;1.45;;;;;;;12.02;99.38;101326.06;6251674;22;20047;-76
2023/08/29 00:46:54;;;;;;;1.27;1.20;;;;;;;11.98;99.20;101314.78;6253425;22;20030;-76
2023/08/29 00:49:23;;;;;;;3.60;1.20;;;;;;;11.95;99.25;101308.41;6252178;22;20031;-76
2023/08/29 00:51:50;;;;;;;1.40;1.30;;;;;;;11.91;98.78;101313.13;6252982;22;20024;-76
2023/08/29 00:54:19;;;;;;;1.30;1.20;;;;;;;11.84;99.54;101309.94;6252578;22;20019;-76
2023/08/29 00:56:46;;;;;;;2.22;1.30;;;;;;;11.77;99.60;101313.59;6252959;22;20827;-76
2023/08/29 00:59:14;;;;;;;1.33;1.00;;;;;;;11.75;98.95;101312.50;6279311;22;20450;-76
2023/08/29 01:01:42;;;;;;;1.63;0.90;;;;;;;11.73;99.02;101307.59;6252612;22;20159;-76
2023/08/29 01:04:09;;;;;;;0.95;0.95;;;;;;;11.72;98.87;101303.44;6252377;22;20020;-76
2023/08/29 01:06:37;;;;;;;1.38;1.27;;;;;;;11.67;99.12;101301.31;6279931;22;20012;-76
2023/08/29 01:09:08;;;;;;;2.88;1.20;;;;;;;11.66;98.99;101303.25;6252631;22;20024;-76
2023/08/29 01:12:04;;;;;;;1.25;1.20;;;;;;;11.68;98.99;101302.81;6252750;22;20017;-76
2023/08/29 01:14:52;;;;;;;1.40;1.10;;;;;;;11.67;98.79;101301.31;6252393;22;20061;-76
2023/08/29 01:17:34;;;;;;;1.40;0.90;;;;;;;11.63;99.31;101300.69;6251857;22;20410;-76
2023/08/29 01:20:05;;;;;;;2.08;0.95;;;;;;;11.58;99.71;101298.63;6280325;22;20022;-76
2023/08/29 01:22:37;;;;;;;1.02;1.00;;;;;;;11.54;98.79;101296.06;6252269;22;20105;-76
2023/08/29 01:25:30;;;;;;;2.10;1.25;;;;;;;11.55;99.14;101300.22;6280431;22;20418;-76
2023/08/29 01:27:56;;;;;;;1.88;1.00;;;;;;;11.52;99.01;101303.75;6279741;22;20039;-76
2023/08/29 01:30:23;;;;;;;1.08;1.08;;;;;;;11.50;99.22;101306.09;6251984;22;20446;-76
2023/08/29 01:32:54;;;;;;;1.05;1.05;;;;;;;11.48;98.81;101305.78;6280393;22;20020;-76
2023/08/29 01:35:22;;;;;;;1.40;1.30;;;;;;;11.46;98.90;101313.47;6279578;22;20506;-76
2023/08/29 01:37:48;;;;;;;1.15;1.15;;;;;;;11.45;99.09;101309.31;6280265;22;20062;-76
2023/08/29 01:40:15;;;;;;;1.13;1.10;;;;;;;11.45;99.53;101316.56;6252422;22;20433;-76
2023/08/29 01:42:42;;;;;;;1.73;1.30;;;;;;;11.42;99.10;101310.16;6226608;22;20095;-76
2023/08/29 01:45:09;;;;;;;3.17;1.42;;;;;;;11.40;99.07;101312.53;6279765;22;20092;-76
2023/08/29 01:47:35;;;;;;;2.35;1.20;;;;;;;11.38;99.07;101311.47;6279731;22;20028;-76
2023/08/29 01:50:04;;;;;;;2.22;1.10;;;;;;;11.35;99.65;101302.41;6253048;22;20443;-76
2023/08/29 01:52:31;;;;;;;2.75;1.35;;;;;;;11.29;98.71;101302.19;6251925;22;20095;-76
2023/08/29 01:54:58;;;;;;;1.48;0.90;;;;;;;11.26;99.37;101310.31;6280253;22;20439;-76
2023/08/29 01:57:27;;;;;;;1.80;1.00;;;;;;;11.21;99.11;101308.94;6251010;22;20020;-76
2023/08/29 01:59:54;;;;;;;1.17;1.08;;;;;;;11.16;99.37;101303.41;6252749;22;20020;-76
2023/08/29 02:02:20;;;;;;;1.08;1.08;;;;;;;11.16;99.43;101303.41;6251935;22;20027;-75
2023/08/29 02:04:47;;;;;;;1.33;1.25;;;;;;;11.14;99.24;101305.75;6280176;22;20020;-76
2023/08/29 02:07:13;;;;;;;1.10;1.10;;;;;;;11.14;99.71;101311.09;6279523;22;20055;-76
2023/08/29 02:09:40;;;;;;;1.23;1.23;;;;;;;11.12;100.00;101305.44;6252174;22;20024;-76
2023/08/29 02:12:07;;;;;;;1.40;1.30;;;;;;;11.09;99.70;101309.72;6279042;22;20023;-76
2023/08/29 02:14:33;;;;;;;1.27;1.27;;;;;;;11.06;99.52;101312.47;6252143;22;20012;-76
2023/08/29 02:17:00;;;;;;;1.42;1.30;;;;;;;11.03;99.46;101314.09;6252936;22;20012;-76
2023/08/29 02:19:28;;;;;;;1.77;0.95;;;;;;;10.98;99.79;101312.69;6279046;22;20024;-76
2023/08/29 02:21:54;;;;;;;0.98;0.98;;;;;;;10.96;100.00;101314.31;6279852;22;20158;-73
2023/08/29 02:24:22;;;;;;;1.40;1.30;;;;;;;10.95;100.00;101326.88;6278385;22;20456;-76
2023/08/29 02:26:49;;;;;;;1.75;0.98;;;;;;;10.93;100.00;101323.88;6279740;22;20016;-76
2023/08/29 02:29:16;;;;;;;1.15;1.08;;;;;;;10.93;100.00;101325.81;6226696;22;20024;-75
2023/08/29 02:31:43;;;;;;;3.17;1.08;;;;;;;10.91;100.00;101333.47;6252349;22;20058;-76
2023/08/29 02:34:09;;;;;;;1.10;1.00;;;;;;;10.90;100.00;101326.66;6279496;22;20012;-75
2023/08/29 02:36:36;;;;;;;1.20;1.10;;;;;;;10.87;100.00;101327.50;6279503;22;20096;-75
2023/08/29 02:39:02;;;;;;;1.00;1.00;;;;;;;10.84;100.00;101328.34;6279041;22;20031;-75
2023/08/29 02:41:30;;;;;;;3.55;1.40;;;;;;;10.83;100.00;101324.19;6251297;22;20418;-75
2023/08/29 02:43:56;;;;;;;2.80;1.35;;;;;;;10.80;100.00;101328.47;6279636;22;20016;-75
2023/08/29 02:46:23;;;;;;;1.45;1.30;;;;;;;10.76;99.82;101324.44;6278782;22;20012;-75
2023/08/29 02:48:52;;;;;;;3.70;1.30;;;;;;;10.75;100.00;101329.03;6251875;22;20020;-75
2023/08/29 02:51:19;;;;;;;1.45;1.40;;;;;;;10.74;100.00;101332.09;6278950;22;20445;-76
2023/08/29 02:53:45;;;;;;;4.20;1.00;;;;;;;10.69;100.00;101325.41;6251589;22;20460;-75
2023/08/29 02:56:12;;;;;;;1.00;1.00;;;;;;;10.68;100.00;101332.63;6279157;22;20013;-75
2023/08/29 02:58:38;;;;;;;2.47;1.20;;;;;;;10.65;99.98;101338.81;6278943;22;20017;-75
2023/08/29 03:01:11;;;;;;;2.20;1.08;;;;;;;10.63;100.00;101338.47;6252144;22;20016;-75
2023/08/29 03:03:38;;;;;;;1.20;1.20;;;;;;;10.62;100.00;101341.56;6279382;22;20074;-75
2023/08/29 03:06:05;;;;;;;1.60;1.20;;;;;;;10.61;100.00;101346.16;6251796;22;20023;-75
2023/08/29 03:08:31;;;;;;;1.30;1.20;;;;;;;10.62;100.00;101350.31;6278439;22;20020;-75
2023/08/29 03:11:03;;;;;;;2.63;1.20;;;;;;;10.63;100.00;101353.72;6279301;22;20022;-75
2023/08/29 03:13:31;;;;;;;1.83;1.13;;;;;;;10.62;100.00;101352.22;6251502;22;20024;-75
2023/08/29 03:16:01;;;;;;;1.85;1.20;;;;;;;10.59;100.00;101356.47;6251610;22;20016;-75
2023/08/29 03:18:28;;;;;;;2.03;1.67;;;;;;;10.58;100.00;101351.56;6251311;22;20043;-75
2023/08/29 03:20:55;;;;;;;1.73;1.17;;;;;;;10.57;100.00;101356.16;6251797;22;20399;-75
2023/08/29 03:23:22;;;;;;;1.95;1.60;;;;;;;10.55;100.00;101345.19;6250343;22;20020;-75
2023/08/29 03:25:49;;;;;;;1.17;1.17;;;;;;;10.53;100.00;101347.53;6279349;22;20019;-74
2023/08/29 03:28:15;;;;;;;2.88;1.27;;;;;;;10.48;100.00;101344.63;6251463;22;20016;-74
2023/08/29 03:30:42;;;;;;;1.27;1.10;;;;;;;10.41;100.00;101345.56;6278816;22;20062;-74
2023/08/29 03:33:09;;;;;;;3.75;1.20;;;;;;;10.41;100.00;101350.16;6251575;22;20074;-74
2023/08/29 03:35:36;;;;;;;1.20;1.20;;;;;;;10.37;100.00;101357.50;6251191;22;20027;-74
2023/08/29 03:38:04;;;;;;;1.50;1.40;;;;;;;10.30;100.00;101348.56;6251041;22;20020;-75
2023/08/29 03:40:31;;;;;;;1.42;1.23;;;;;;;10.33;100.00;101350.38;6252821;22;20020;-74
2023/08/29 03:42:58;;;;;;;3.45;1.80;;;;;;;10.30;100.00;101347.81;6253119;22;20024;-74
2023/08/29 03:45:25;;;;;;;7.03;2.40;;;;;;;10.30;100.00;101345.88;6252506;22;20016;-74
2023/08/29 03:47:51;;;;;;;3.83;2.70;;;;;;;10.31;100.00;101350.03;6253390;22;20024;-74
2023/08/29 03:50:21;;;;;;;3.25;2.25;;;;;;;10.30;100.00;101348.56;6252510;22;20905;-74
2023/08/29 03:52:48;;;;;;;4.55;2.45;;;;;;;10.26;100.00;101342.56;6252389;22;20128;-74
2023/08/29 03:55:15;;;;;;;2.63;2.28;;;;;;;10.26;100.00;101337.25;6252635;22;20446;-73
2023/08/29 03:57:41;;;;;;;2.97;2.47;;;;;;;10.23;100.00;101335.44;6252510;22;20098;-74
2023/08/29 04:00:10;;;;;;;4.50;2.53;;;;;;;10.19;100.00;101334.78;6280204;22;20012;-73
2023/08/29 04:02:39;;;;;;;3.63;2.83;;;;;;;10.20;100.00;101324.88;6280436;22;20024;-73
2023/08/29 04:05:14;;;;;;;3.90;2.90;;;;;;;10.21;100.00;101329.78;6227438;22;20458;-73
2023/08/29 04:07:42;;;;;;;3.22;2.92;;;;;;;10.17;100.00;101329.09;6252330;22;20031;-74
2023/08/29 04:10:09;;;;;;;3.45;2.53;;;;;;;10.17;100.00;101328.34;6280143;22;20016;-74
2023/08/29 04:12:36;;;;;;;5.55;2.28;;;;;;;10.16;100.00;101324.22;6252662;22;20082;-74
2023/08/29 04:15:03;;;;;;;2.95;2.10;;;;;;;10.12;100.00;101321.63;6253398;22;20024;-74
2023/08/29 04:17:30;;;;;;;2.17;2.00;;;;;;;10.08;100.00;101326.31;6279795;22;20016;-74
2023/08/29 04:19:56;;;;;;;2.05;1.83;;;;;;;10.06;100.00;101325.97;6227731;22;20023;-74
2023/08/29 04:22:23;;;;;;;2.25;2.13;;;;;;;10.04;100.00;101320.34;6279079;22;20020;-74
2023/08/29 04:24:49;;;;;;;3.50;2.30;;;;;;;10.02;100.00;101317.34;6253264;22;20051;-75
2023/08/29 04:27:16;;;;;;;4.63;2.25;;;;;;;9.96;100.00;101311.06;6252737;22;20024;-74
2023/08/29 04:29:43;;;;;;;2.67;2.47;;;;;;;9.90;100.00;101310.84;6252792;22;20454;-74
2023/08/29 04:32:09;;;;;;;5.45;2.60;;;;;;;9.91;100.00;101304.34;6280041;22;20031;-74
2023/08/29 04:34:36;;;;;;;2.85;2.53;;;;;;;9.93;100.00;101302.03;6252675;22;20032;-74
2023/08/29 04:37:04;;;;;;;5.03;2.30;;;;;;;9.93;100.00;101291.38;6280141;22;20016;-73
2023/08/29 04:39:30;;;;;;;2.28;2.17;;;;;;;9.93;100.00;101280.75;6279817;22;20043;-73
2023/08/29 04:41:57;;;;;;;2.45;2.22;;;;;;;9.91;100.00;101277.75;6280440;22;20020;-74
2023/08/29 04:44:24;;;;;;;2.22;2.13;;;;;;;9.90;100.00;101273.59;6279582;22;20012;-74
2023/08/29 04:46:51;;;;;;;3.35;2.35;;;;;;;9.89;100.00;101277.44;6280633;22;20016;-75
2023/08/29 04:49:18;;;;;;;2.28;2.17;;;;;;;9.89;100.00;101279.34;6252612;22;20044;-74
2023/08/29 04:51:44;;;;;;;1.90;1.80;;;;;;;9.88;100.00;101280.50;6251456;22;20378;-75
2023/08/29 04:54:11;;;;;;;2.78;2.58;;;;;;;9.88;100.00;101278.59;6252360;22;20170;-74
2023/08/29 04:56:38;;;;;;;2.10;1.90;;;;;;;9.90;100.00;101286.16;6280121;22;20017;-75
2023/08/29 04:59:04;;;;;;;2.17;1.98;;;;;;;9.90;100.00;101283.50;6252738;22;20031;-75
2023/08/29 05:01:31;;;;;;;3.03;2.03;;;;;;;9.90;100.00;101283.50;6252346;22;20027;-75
2023/08/29 05:03:57;;;;;;;2.88;2.33;;;;;;;9.92;100.00;101281.16;6252375;22;20024;-75
2023/08/29 05:06:25;;;;;;;2.00;1.90;;;;;;;9.91;100.00;101272.44;6252058;22;20434;-74
2023/08/29 05:08:52;;;;;;;2.00;1.90;;;;;;;9.93;100.00;101272.03;6252840;22;20082;-74
2023/08/29 05:11:18;;;;;;;2.25;2.10;;;;;;;9.96;100.00;101265.88;6252457;22;20020;-75
2023/08/29 05:13:45;;;;;;;5.35;2.10;;;;;;;9.92;100.00;101273.94;6280403;22;20016;-75
2023/08/29 05:16:12;;;;;;;5.13;2.30;;;;;;;9.91;100.00;101269.03;6252559;22;20436;-75
2023/08/29 05:18:39;;;;;;;2.10;1.90;;;;;;;9.93;100.00;101272.03;6252049;22;20040;-75
2023/08/29 05:21:05;;;;;;;2.40;2.30;;;;;;;9.97;100.00;101270.75;6252076;22;20020;-75
2023/08/29 05:23:32;;;;;;;2.30;2.10;;;;;;;10.03;100.00;101273.63;6251763;22;20024;-75
2023/08/29 05:25:58;;;;;;;2.35;2.15;;;;;;;10.06;100.00;101274.69;6280276;22;20070;-74
2023/08/29 05:28:25;;;;;;;3.38;2.50;;;;;;;10.10;100.00;101280.66;6226562;22;20946;-75
2023/08/29 05:30:52;;;;;;;2.55;2.35;;;;;;;10.14;100.00;101282.06;6280229;22;20420;-77
2023/08/29 05:33:18;;;;;;;2.40;2.20;;;;;;;10.20;100.00;101275.09;6278811;22;20043;-75
2023/08/29 05:35:45;;;;;;;2.58;2.28;;;;;;;10.25;100.00;101285.19;6280084;22;20496;-74
2023/08/29 05:38:12;;;;;;;2.30;2.20;;;;;;;10.30;100.00;101281.28;6279760;22;20413;-75
2023/08/29 05:40:38;;;;;;;2.53;2.42;;;;;;;10.43;100.00;101281.28;6227043;22;20016;-75
2023/08/29 05:43:05;;;;;;;3.72;2.40;;;;;;;10.78;100.00;101268.84;6280006;22;20035;-76
2023/08/29 05:45:31;;;;;;;2.47;2.38;;;;;;;11.75;100.00;101275.91;6252299;22;20048;-78
2023/08/29 05:47:58;;;;;;;3.10;2.90;;;;;;;12.65;96.29;101276.84;6279571;22;20140;-77
2023/08/29 05:50:24;;;;;;;3.00;2.80;;;;;;;13.59;90.84;101278.06;6279522;22;20016;-78
2023/08/29 05:52:51;;;;;;;3.63;2.80;;;;;;;14.48;85.63;101287.53;6280073;22;20035;-76
2023/08/29 05:55:18;;;;;;;3.35;3.05;;;;;;;15.11;81.69;101280.34;6279344;22;20023;-75
2023/08/29 05:57:45;;;;;;;4.68;2.53;;;;;;;15.92;77.78;101268.22;6279625;22;20012;-74
2023/08/29 06:00:14;;;;;;;2.70;2.50;;;;;;;17.12;73.08;101270.88;6279520;22;20012;-75
2023/08/29 06:02:41;;;;;;;3.22;2.95;;;;;;;18.14;68.27;101268.69;6278805;22;20450;-74
2023/08/29 06:05:07;;;;;;;6.88;2.88;;;;;;;18.62;65.17;101270.72;6252647;22;20055;-75
2023/08/29 06:07:34;;;;;;;5.93;2.90;;;;;;;17.71;67.50;101267.09;6279770;22;20034;-75
2023/08/29 06:10:02;;;;;;;5.22;2.72;;;;;;;17.88;68.32;101265.28;6252684;22;20016;-78
2023/08/29 06:12:29;;;;;;;3.95;2.60;;;;;;;18.35;67.58;101263.19;6279308;22;20402;-78
2023/08/29 06:14:56;;;;;;;2.95;2.58;;;;;;;18.21;67.67;101267.50;6280167;22;20102;-75
2023/08/29 06:17:22;;;;;;;6.28;3.03;;;;;;;17.46;70.45;101274.66;6278738;22;20008;-75
2023/08/29 06:19:49;;;;;;;3.00;2.80;;;;;;;17.05;72.54;101275.94;6279935;22;20043;-76
2023/08/29 06:22:15;;;;;;;7.22;2.90;;;;;;;17.04;72.66;101288.63;6279572;22;20012;-76
2023/08/29 06:24:42;;;;;;;3.13;2.92;;;;;;;16.69;74.04;101285.25;6279747;22;20078;-76
2023/08/29 06:27:09;;;;;;;4.10;2.50;;;;;;;15.91;77.16;101277.47;6279929;22;20074;-77
2023/08/29 06:29:35;;;;;;;3.90;2.70;;;;;;;15.43;80.36;101276.84;6279866;22;20036;-76
2023/08/29 06:32:02;;;;;;;3.03;2.50;;;;;;;15.15;82.43;101275.56;6279648;22;20016;-76
2023/08/29 06:34:29;;;;;;;2.90;2.55;;;;;;;14.91;84.42;101284.34;6279603;22;20438;-76
2023/08/29 06:36:55;;;;;;;3.92;2.70;;;;;;;14.74;86.22;101279.84;6280200;22;20012;-77
2023/08/29 06:39:22;;;;;;;3.28;2.63;;;;;;;14.62;87.52;101278.84;6279346;22;20012;-80
2023/08/29 06:41:48;;;;;;;2.90;2.60;;;;;;;14.53;88.83;101281.56;6280132;22;20047;-80
2023/08/29 06:44:15;;;;;;;4.47;3.33;;;;;;;14.47;89.66;101286.03;6279811;22;20026;-79
2023/08/29 06:46:41;;;;;;;7.53;2.83;;;;;;;14.42;91.46;101295.44;6278841;22;20016;-78
2023/08/29 06:49:08;;;;;;;9.05;2.95;;;;;;;14.40;91.92;101286.34;6252320;22;20020;-77
2023/08/29 06:51:35;;;;;;;3.03;2.80;;;;;;;14.41;92.16;101279.78;6279656;22;20023;-76
2023/08/29 06:54:02;;;;;;;3.95;2.70;;;;;;;14.34;92.92;101281.63;6252399;22;20082;-77
2023/08/29 06:56:29;;;;;;;4.60;2.80;;;;;;;14.36;93.66;101283.84;6279150;22;20016;-77
2023/08/29 06:58:56;;;;;;;3.22;2.70;;;;;;;14.38;93.81;101286.06;6279607;22;20019;-77
2023/08/29 07:01:22;;;;;;;3.10;3.00;;;;;;;14.38;94.73;101283.41;6278610;22;20446;-77
2023/08/29 07:03:49;;;;;;;878.85;90.50;;;;;;;14.41;94.70;101285.91;6252611;22;20020;-77
2023/08/29 07:06:16;;;;;;;75.60;12.32;;;;;;;14.42;95.26;101292.00;6279239;22;20013;-77
2023/08/29 07:08:42;;;;;;;33.03;5.05;;;;;;;14.42;95.93;101286.66;6279346;22;20016;-77
2023/08/29 07:11:09;;;;;;;12.30;4.65;;;;;;;14.44;96.35;101295.72;6251717;22;20103;-77
2023/08/29 07:13:35;;;;;;;8.18;4.07;;;;;;;14.47;96.90;101284.09;6279351;22;20020;-76
2023/08/29 07:16:04;;;;;;;3.85;3.55;;;;;;;14.58;97.60;101288.97;6253315;22;20074;-75
2023/08/29 07:18:33;;;;;;;4.60;2.90;;;;;;;14.68;97.22;101291.19;6280389;22;20473;-76
2023/08/29 07:21:01;;;;;;;3.38;2.97;;;;;;;14.81;96.93;101287.53;6253634;22;20472;-76
2023/08/29 07:23:28;;;;;;;6.20;3.30;;;;;;;15.00;97.02;101291.59;6252688;22;20091;-76
2023/08/29 07:25:54;;;;;;;5.00;3.28;;;;;;;15.15;97.75;101281.66;6280887;22;20091;-76
2023/08/29 07:28:21;;;;;;;3.33;3.05;;;;;;;15.24;97.32;101278.91;6278955;22;20044;-76
2023/08/29 07:30:51;;;;;;;4.82;3.05;;;;;;;15.32;96.60;101292.72;6278709;22;20012;-76
2023/08/29 07:33:19;;;;;;;5.75;3.08;;;;;;;15.39;96.50;101281.63;6278586;22;20055;-76
2023/08/29 07:35:47;;;;;;;4.70;3.10;;;;;;;15.48;97.23;101286.94;6252347;22;20070;-79
2023/08/29 07:38:15;;;;;;;3.47;3.28;;;;;;;15.56;96.40;101274.66;6279056;22;20016;-79
2023/08/29 07:40:44;;;;;;;5.20;2.80;;;;;;;15.61;95.76;101273.25;6278823;22;20502;-79
2023/08/29 07:43:10;;;;;;;2.95;2.63;;;;;;;15.56;95.65;101276.59;6279409;22;20031;-79
2023/08/29 07:45:37;;;;;;;3.20;3.00;;;;;;;15.59;96.16;101278.38;6252582;22;20397;-79
2023/08/29 07:48:04;;;;;;;2.92;2.72;;;;;;;15.60;95.99;101280.56;6280967;22;20013;-79
2023/08/29 07:50:32;;;;;;;3.30;2.90;;;;;;;15.66;96.17;101280.69;6280587;22;20019;-79
2023/08/29 07:52:59;;;;;;;3.38;2.83;;;;;;;15.71;96.46;101271.25;6253534;22;20012;-79
2023/08/29 07:55:25;;;;;;;3.08;2.70;;;;;;;15.73;97.13;101274.94;6280289;22;20417;-79
2023/08/29 07:57:56;;;;;;;2.83;2.63;;;;;;;15.84;96.67;101277.09;6279684;22;20428;-78
2023/08/29 08:00:23;;;;;;;2.72;2.50;;;;;;;15.95;96.75;101269.22;6279882;22;20494;-78
2023/08/29 08:02:49;;;;;;;3.53;3.20;;;;;;;16.11;95.23;101265.31;6280667;22;20476;-78
2023/08/29 08:05:16;;;;;;;3.40;3.10;;;;;;;16.11;94.95;101271.44;6280421;22;20016;-78
2023/08/29 08:07:44;;;;;;;3.42;3.05;;;;;;;16.22;94.91;101263.56;6280494;22;20074;-78
2023/08/29 08:10:12;;;;;;;3.10;2.80;;;;;;;16.45;94.72;101271.94;6279898;22;20048;-78
2023/08/29 08:12:40;;;;;;;4.43;2.67;;;;;;;16.66;93.18;101262.72;6252600;22;20016;-78
2023/08/29 08:15:08;;;;;;;2.92;2.70;;;;;;;16.76;92.98;101266.78;6253168;22;20066;-77
2023/08/29 08:17:35;;;;;;;4.15;2.50;;;;;;;16.88;92.17;101264.94;6280161;22;20008;-76
2023/08/29 08:20:08;;;;;;;7.88;2.05;;;;;;;17.02;91.14;101268.81;6280613;22;20012;-78
2023/08/29 08:22:38;;;;;;;6.50;2.00;;;;;;;17.28;90.50;101264.19;6280446;22;20007;-78
2023/08/29 08:25:06;;;;;;;5.78;2.10;;;;;;;17.33;89.04;101268.91;6253318;22;20016;-78
2023/08/29 08:27:34;;;;;;;2.03;1.92;;;;;;;17.45;89.71;101265.13;6279452;22;20020;-78
2023/08/29 08:30:01;;;;;;;4.78;2.40;;;;;;;17.52;88.16;101264.72;6280550;22;20023;-77
2023/08/29 08:32:27;;;;;;;3.28;2.13;;;;;;;17.58;88.61;101273.59;6280111;22;20016;-78
2023/08/29 08:34:55;;;;;;;8.27;2.00;;;;;;;17.68;88.11;101274.16;6280696;22;20425;-76
2023/08/29 08:37:22;;;;;;;1.50;1.40;;;;;;;17.78;87.35;101272.78;6280142;22;20438;-77
2023/08/29 08:39:48;;;;;;;1.65;1.48;;;;;;;17.83;86.86;101276.75;6280826;22;20023;-76
2023/08/29 08:42:15;;;;;;;2.20;1.08;;;;;;;17.90;87.25;101268.25;6279751;22;20020;-78
2023/08/29 08:44:42;;;;;;;3.78;1.00;;;;;;;17.99;84.97;101265.41;6280364;22;20527;-81
2023/08/29 08:47:10;;;;;;;2.97;1.25;;;;;;;17.99;85.58;101273.47;6280798;22;20083;-80
2023/08/29 08:49:38;;;;;;;4.72;1.15;;;;;;;18.12;85.06;101271.09;6280650;22;20023;-78
2023/08/29 08:52:05;;;;;;;2.28;0.90;;;;;;;18.29;84.32;101271.97;6254790;22;20096;-81
2023/08/29 08:54:32;;;;;;;1.73;0.90;;;;;;;18.40;81.51;101276.69;6280387;22;20012;-78
2023/08/29 08:56:58;;;;;;;1.75;0.85;;;;;;;18.40;80.29;101276.69;6279826;22;20071;-78
2023/08/29 08:59:25;;;;;;;1.15;0.68;;;;;;;18.51;80.45;101276.75;6252686;22;20103;-76
2023/08/29 09:01:55;;;;;;;1.10;1.00;;;;;;;18.58;79.46;101273.63;6253487;22;20024;-78
2023/08/29 09:04:22;;;;;;;0.80;0.80;;;;;;;18.54;78.68;101275.06;6252906;22;20016;-77
2023/08/29 09:06:49;;;;;;;1.02;0.80;;;;;;;18.54;79.85;101272.34;6280690;22;20417;-76
2023/08/29 09:09:24;;;;;;;1.23;0.93;;;;;;;18.61;78.49;101274.63;6280097;22;20012;-76
2023/08/29 09:12:00;;;;;;;0.90;0.75;;;;;;;18.73;77.68;101275.44;6280034;22;20410;-80
2023/08/29 09:14:27;;;;;;;1.63;1.10;;;;;;;18.78;78.20;101267.38;6227109;22;20023;-80
2023/08/29 09:16:55;;;;;;;1.75;1.05;;;;;;;18.77;78.11;101271.31;6280524;22;20099;-80
2023/08/29 09:19:22;;;;;;;1.10;1.00;;;;;;;18.62;77.08;101266.06;6279723;22;20017;-80
2023/08/29 09:21:50;;;;;;;1.17;1.08;;;;;;;18.61;77.77;101274.63;6280321;22;20091;-80
2023/08/29 09:24:32;;;;;;;2.47;1.20;;;;;;;18.64;77.35;101279.81;6279799;22;20055;-80
2023/08/29 09:26:58;;;;;;;1.60;1.30;;;;;;;18.58;77.88;101276.31;6280086;22;20478;-79
2023/08/29 09:29:25;;;;;;;3.58;1.13;;;;;;;18.63;77.00;101278.31;6279473;22;20850;-79
2023/08/29 09:31:51;;;;;;;3.55;1.42;;;;;;;18.50;77.02;101282.63;6280277;22;20020;-79
2023/08/29 09:34:30;;;;;;;1.63;1.15;;;;;;;18.51;78.09;101279.44;6279916;22;20465;-80
2023/08/29 09:36:58;;;;;;;2.20;1.30;;;;;;;18.53;78.49;101279.72;6252762;22;20016;-79
2023/08/29 09:39:26;;;;;;;1.95;1.20;;;;;;;18.62;78.34;101281.50;6251319;22;20116;-82
2023/08/29 09:42:07;;;;;;;2.03;1.20;;;;;;;18.72;78.62;101272.00;6252698;22;20050;-81
2023/08/29 09:44:38;;;;;;;1.55;1.13;;;;;;;18.82;78.27;101273.25;6279974;22;20016;-81
2023/08/29 09:47:06;;;;;;;2.47;1.50;;;;;;;18.91;78.32;101272.31;6280221;22;20016;-79
2023/08/29 09:49:47;;;;;;;2.20;1.67;;;;;;;18.99;77.79;101268.69;6279829;22;20079;-81
2023/08/29 09:52:15;;;;;;;2.20;1.90;;;;;;;19.07;77.15;101271.66;6279578;22;20024;-77
2023/08/29 09:54:47;;;;;;;2.28;2.03;;;;;;;19.13;76.65;101264.31;6279213;22;20342;-79
2023/08/29 09:57:15;;;;;;;2.35;1.90;;;;;;;19.18;76.50;101266.31;6279664;22;20016;-80
2023/08/29 09:59:43;;;;;;;2.47;2.28;;;;;;;19.37;76.58;101258.47;6252769;22;20012;-78
2023/08/29 10:02:11;;;;;;;2.55;2.22;;;;;;;19.59;77.16;101260.53;6279715;22;20091;-78
2023/08/29 10:04:43;;;;;;;2.47;2.25;;;;;;;19.81;73.86;101254.38;6252494;22;20051;-78
2023/08/29 10:07:15;;;;;;;2.30;2.20;;;;;;;19.77;72.30;101249.22;6279672;22;20153;-79
2023/08/29 10:09:42;;;;;;;3.55;2.40;;;;;;;19.84;70.49;101243.34;6279540;22;20023;-79
2023/08/29 10:12:10;;;;;;;4.13;2.42;;;;;;;19.87;71.67;101253.16;6279771;22;20398;-79
2023/08/29 10:14:38;;;;;;;2.55;2.33;;;;;;;19.93;70.81;101250.47;6279952;22;20055;-79
2023/08/29 10:17:05;;;;;;;3.35;2.20;;;;;;;20.11;73.30;101246.50;6280412;22;20460;-80
2023/08/29 10:19:48;;;;;;;2.67;2.15;;;;;;;20.44;71.42;101241.06;6280436;22;20016;-81
2023/08/29 10:22:16;;;;;;;1.80;1.70;;;;;;;20.58;71.01;101240.03;6279545;22;20016;-81
2023/08/29 10:24:44;;;;;;;1.60;1.48;;;;;;;20.58;69.38;101245.44;6279305;22;20023;-78
2023/08/29 10:27:11;;;;;;;1.60;1.50;;;;;;;20.75;69.06;101237.28;6279574;22;20020;-78
2023/08/29 10:29:38;;;;;;;1.92;1.58;;;;;;;20.88;67.58;101234.00;6279210;22;20139;-78
2023/08/29 10:32:05;;;;;;;2.28;1.58;;;;;;;20.96;66.02;101233.00;6280005;22;20024;-78
2023/08/29 10:34:32;;;;;;;2.17;1.75;;;;;;;21.11;65.65;101234.63;6279629;22;20016;-78
2023/08/29 10:36:59;;;;;;;3.28;1.30;;;;;;;21.11;66.28;101226.53;6280060;22;20095;-77
2023/08/29 10:39:27;;;;;;;3.45;1.25;;;;;;;21.37;66.56;101231.53;6278666;22;20071;-77
2023/08/29 10:41:55;;;;;;;2.28;1.63;;;;;;;21.27;66.36;101223.72;6280098;22;20017;-79
2023/08/29 10:44:31;;;;;;;2.25;1.30;;;;;;;21.45;66.84;101229.78;6278915;22;20070;-78
2023/08/29 10:47:26;;;;;;;1.73;1.63;;;;;;;21.41;65.95;101227.34;6279976;22;20012;-78
2023/08/29 10:49:58;;;;;;;3.65;1.50;;;;;;;21.23;65.41;101217.84;6281214;22;20020;-78
2023/08/29 10:52:35;;;;;;;1.67;1.10;;;;;;;21.36;66.45;101228.09;6279546;22;20027;-76
2023/08/29 10:55:17;;;;;;;1.67;1.02;;;;;;;21.42;62.69;101219.94;6280909;22;20099;-76
2023/08/29 10:57:44;;;;;;;1.42;1.33;;;;;;;21.48;63.19;101217.94;6280666;22;20023;-76
2023/08/29 11:00:32;;;;;;;2.05;1.30;;;;;;;21.45;63.79;101216.22;6280591;22;20020;-76
2023/08/29 11:03:00;;;;;;;2.47;1.38;;;;;;;21.33;63.53;101218.28;6281014;22;20043;-76
2023/08/29 11:05:27;;;;;;;1.48;1.38;;;;;;;21.29;63.62;101215.84;6253281;22;20047;-77
2023/08/29 11:08:21;;;;;;;4.35;1.50;;;;;;;21.41;63.46;101213.06;6280343;22;20016;-76
2023/08/29 11:11:09;;;;;;;2.92;1.52;;;;;;;21.38;62.74;101211.34;6280854;22;20020;-76
2023/08/29 11:13:53;;;;;;;1.42;1.33;;;;;;;21.25;63.33;101207.25;6280527;22;20016;-80
2023/08/29 11:16:19;;;;;;;1.40;1.30;;;;;;;21.10;63.75;101209.53;6280234;22;20016;-80
2023/08/29 11:18:47;;;;;;;1.40;1.30;;;;;;;21.21;63.00;101201.34;6280788;22;20013;-77
2023/08/29 11:21:16;;;;;;;1.45;1.13;;;;;;;21.24;62.05;101202.34;6279632;22;20398;-77
2023/08/29 11:23:44;;;;;;;4.30;1.37;;;;;;;21.41;61.68;101196.81;6280773;22;20026;-81
2023/08/29 11:26:11;;;;;;;1.10;1.00;;;;;;;21.70;62.26;101192.63;6252855;22;20016;-80
2023/08/29 11:28:44;;;;;;;2.10;1.23;;;;;;;21.66;62.35;101195.63;6280641;22;20042;-79